Create Custom Reports and Graphics: Custom Report

Upper Lake

Current Conditions

8/31/26 11:45 AM (-07:00)
Updated Every 15 Minutes
Temp 79.6 °F   0.3
RH 38 %   2
Dew Pt 51.8 °F   1.5
Wet Bulb 61.6 °F   0.9
Wind Dir SE | 139 °
Wind Spd 2.9 mph   0.3
Wind Gust 6.8 mph   0.0
BatVolt 13.3 V   0.0
Month Precip 0.00 In
Season Precip 0.03 In

Today & Yesterday

Midnight to Midnight

8/31/26 11:45 AM (-07:00)
Updated Every 15 Minutes
Daily Max Temp 80.3 °F   0.5
Time of Max Temp 1125
Daily Min Temp 45.4 °F   0.6
Time of Min Temp 0641
Daily Max Wind 6.8 mph   0.1
Time of Max Wind 1108
Max Wind Dir S | 177 °
Daily Rain 0.00 In
Daily Leaf Wet 0.0 Hrs   0.0
Yest MaxT 91.3 °F
Yest MinT 44.8 °F
Yest MaxGst 13.6 mph
Yest Precip 0.00 In
Yest Leaf Wet 0.0 Hrs

Last 30 Days

Upper Lake

Daily Data | America/Los_Angeles
as of 8/31/26 11:49 AM PDT
Date Daily Max Temp (°F) Time of Max Temp Daily Min Temp (°F) Time of Min Temp Daily Rain (In) Month Precip (In) Season Precip (In) Wind Spd (mph) Daily Max Wind (mph) Time of Max Wind Max Wind Dir (°) Dew Pt (°F) Daily Max RH (%) Daily Min RH (%) Hrs <= 32F (hrs) Hrs <= 28F (hrs) Daily Leaf Wet (Hrs) Degree Hrs (hrs) Hrs 70-85F (hrs) Hrs > 95F (hrs) Powdery Mildew Stress (pts) MinBV Day (V)
8/30/26 91.3 1658 44.8 0636 0.00 0.00 0.03 1.7 13.6 1943 W | 278 46.9 95 17 0.0 0.0 0.0 200.8 3.73 0.00 0 12.5
8/29/26 88.5 1413 41.1 0558 0.00 0.00 0.03 2.2 17.3 1819 WSW | 258 45.6 93 23 0.0 0.0 0.0 162.9 4.83 0.00 10 12.5
8/28/26 84.9 1515 47.3 0101 0.00 0.00 0.03 1.5 11.2 1804 WSW | 255 44.4 82 15 0.0 0.0 0.0 156.4 10.71 0.00 20 12.5
8/27/26 95.7 1549 51.8 0659 0.00 0.00 0.03 2.7 18.7 1635 N | 353 49.5 93 17 0.0 0.0 0.0 289.3 4.95 0.16 0 12.5
8/26/26 94.9 1449 43.0 0601 0.00 0.00 0.03 2.1 16.2 1737 W | 272 46.4 91 13 0.0 0.0 0.0 248.5 3.84 0.00 0 12.5
8/25/26 91.1 1504 47.8 0634 0.00 0.00 0.03 1.9 15.0 1820 WNW | 289 46.0 92 16 0.0 0.0 0.0 231.0 3.26 0.00 0 12.5
8/24/26 92.8 1637 47.8 0659 0.00 0.00 0.03 2.0 15.6 1928 WSW | 247 48.1 94 13 0.0 0.0 0.0 243.1 2.62 0.00 0 12.5
8/23/26 94.7 1531 46.7 0707 0.00 0.00 0.03 1.7 14.4 1806 NNW | 348 48.8 97 13 0.0 0.0 0.0 261.5 2.94 0.00 0 12.5
8/22/26 91.4 1535 44.2 0631 0.00 0.00 0.03 2.4 16.3 1329 W | 270 46.6 93 18 0.0 0.0 0.0 223.1 4.12 0.00 0 12.5
8/21/26 90.9 1637 52.2 0048 0.00 0.00 0.03 1.9 15.7 1655 N | 354 50.4 90 12 0.0 0.0 0.0 216.8 4.08 0.00 0 12.5
8/20/26 94.2 1613 51.6 0544 0.00 0.00 0.03 2.0 11.8 1838 W | 280 50.3 86 14 0.0 0.0 0.0 276.3 3.19 0.00 10 12.5
8/19/26 96.5 1748 54.2 0618 0.00 0.00 0.03 1.9 13.0 1736 S | 182 52.3 87 22 0.0 0.0 0.0 314.8 2.40 3.04 20 12.5
8/18/26 97.0 1714 53.5 0538 0.00 0.00 0.03 2.2 14.2 1802 N | 353 52.1 88 22 0.0 0.0 0.0 291.1 2.25 1.03 30 12.5
8/17/26 91.3 1628 58.1 0413 0.00 0.00 0.03 2.1 12.9 1958 W | 277 52.4 85 22 0.0 0.0 0.0 254.4 2.94 0.00 40 12.5
8/16/26 90.6 1546 48.7 0639 0.00 0.00 0.03 1.8 12.7 1307 S | 179 52.9 97 22 0.0 0.0 0.0 238.2 3.85 0.00 50 12.5
8/15/26 85.4 1516 48.0 0623 0.00 0.00 0.03 1.9 14.5 1811 WNW | 297 52.8 98 25 0.0 0.0 0.0 168.7 11.55 0.00 60 12.5
8/14/26 82.6 1717 51.3 0621 0.00 0.00 0.03 2.4 15.7 1804 NNW | 346 54.8 97 34 0.0 0.0 1.0 129.1 9.82 0.00 40 12.5
8/13/26 84.5 1522 52.9 0649 0.00 0.00 0.03 2.3 15.4 1558 SE | 146 55.8 94 40 0.0 0.0 0.0 166.2 11.68 0.00 20 12.5
8/12/26 93.4 1628 53.1 0626 0.00 0.00 0.03 1.9 13.3 1705 WSW | 250 55.0 93 21 0.0 0.0 0.0 266.1 3.63 0.00 0 12.5
8/11/26 95.0 1750 52.4 0644 0.00 0.00 0.03 2.1 15.0 1833 W | 268 55.1 93 25 0.0 0.0 0.0 290.0 3.01 0.00 0 12.5
8/10/26 98.7 1420 51.6 0632 0.00 0.00 0.03 1.7 13.0 1558 SSE | 161 53.6 89 17 0.0 0.0 0.0 324.7 1.91 2.95 0 12.5
8/9/26 105.2 1537 51.9 0630 0.00 0.00 0.03 1.9 16.0 1616 NNW | 333 49.4 88 11 0.0 0.0 0.0 371.8 1.79 6.95 0 12.5
8/8/26 108.1 1541 55.3 0615 0.00 0.00 0.03 1.8 14.2 1626 WSW | 246 49.5 82 8 0.0 0.0 0.0 425.4 2.10 7.98 0 12.5
8/7/26 103.3 1715 52.6 0548 0.00 0.00 0.03 1.9 14.5 1845 WNW | 292 49.2 86 13 0.0 0.0 0.0 383.2 2.06 6.69 0 12.5
8/6/26 100.0 1622 52.5 0624 0.00 0.00 0.03 2.0 13.2 1944 W | 275 52.4 95 12 0.0 0.0 0.0 333.8 2.23 5.50 0 12.5
8/5/26 99.1 1524 54.8 0651 0.00 0.00 0.03 1.9 11.4 1418 S | 169 55.1 89 18 0.0 0.0 0.0 346.8 2.28 4.64 0 12.5
8/4/26 102.2 1720 54.0 0611 0.00 0.00 0.03 1.8 15.1 1730 W | 276 54.0 92 15 0.0 0.0 0.0 385.3 2.69 6.49 0 12.5
8/3/26 102.9 1725 54.0 0628 0.00 0.00 0.03 1.9 16.9 1740 NW | 314 53.5 92 14 0.0 0.0 0.0 368.2 2.17 6.11 0 12.5
8/2/26 101.1 1517 52.2 0635 0.00 0.00 0.03 1.9 17.4 1500 NNW | 343 53.2 93 17 0.0 0.0 0.0 340.9 4.21 5.03 0 12.5
8/1/26 101.0 1458 51.6 0616 0.00 0.00 0.03 2.4 20.1 1537 N | 350 53.4 94 17 0.0 0.0 0.0 361.2 4.21 5.26 0 12.5
Max 108.1 - 58.1 - 0.00 0.00 0.03 2.7 20.1 - - 55.8 98 40 0.0 0.0 1.0 425.4 11.68 7.98 - 12.5
Avg - - - - - - - 2.0 - - - 51.0 - - 0.0 0.0 - - 4.17 2.06 - -
Min 82.6 - 41.1 - 0.00 0.00 0.03 1.5 11.2 - - 44.4 82 8 0.0 0.0 0.0 129.1 1.79 0.00 - 12.5
Total - - - - - - - - - - - - - - 0.0 0.0 - - 125.06 61.83 - -

Last 7 Days

Upper Lake

Hourly Data | America/Los_Angeles
as of 8/31/26 11:49 AM PDT
Date & Time Temp (°F) RH (%) Dew Pt (°F) Wet Bulb (°F) Wind Dir (°) Wind Spd (mph) Wind Gust (mph) Leaf Wet (mins) BatVolt (V) Latest Rain (In) Daily Rain (In) Daily Min Temp (°F) Daily Max Temp (°F) Daily Max Wind (mph) Daily Leaf Wet (Hrs)
8/31/26 - 1100 76.3 37 48.2 58.9 SSW | 208 1.9 5.4 0.0 13.2 0.00 0.00 45.4 78.7 5.6 0.0
8/31/26 - 1000 70.3 48 49.5 58.0 SE | 139 1.5 5.6 0.0 12.7 0.00 0.00 45.4 73.6 5.6 0.0
8/31/26 - 0900 61.6 62 48.4 54.6 E | 98 0.6 3.1 0.0 12.6 0.00 0.00 45.4 67.0 3.1 0.0
8/31/26 - 0800 49.3 86 45.3 47.7 SSE | 152 0.2 2.4 0.0 12.5 0.00 0.00 45.4 55.1 2.6 0.0
8/31/26 - 0700 45.9 90 43.0 44.9 N | 355 0.1 2.6 0.0 12.5 0.00 0.00 45.4 52.6 2.6 0.0
8/31/26 - 0600 46.6 88 43.4 45.4 N | 7 0.2 1.6 0.0 12.5 0.00 0.00 46.2 52.6 1.9 0.0
8/31/26 - 0500 47.8 86 43.9 46.3 ESE | 110 0.0 0.9 0.0 12.5 0.00 0.00 47.1 52.6 1.9 0.0
8/31/26 - 0400 48.9 82 43.8 46.8 ESE | 122 0.0 0.8 0.0 12.6 0.00 0.00 48.0 52.6 1.9 0.0
8/31/26 - 0300 50.2 80 44.4 47.7 NNE | 21 0.2 1.9 0.0 12.6 0.00 0.00 49.7 52.6 1.9 0.0
8/31/26 - 0200 52.0 76 44.6 48.6 NW | 309 0.0 1.1 0.0 12.6 0.00 0.00 51.3 52.6 1.1 0.0
8/31/26 - 0100 54.2 72 45.2 49.9 N | 349 0.0 1.1 0.0 12.6 0.00 0.00 44.8 91.3 13.6 0.0
8/31/26 - 0000 56.8 65 45.3 51.1 NNW | 331 0.1 1.8 0.0 12.6 0.00 0.00 44.8 91.3 13.6 0.0
8/30/26 - 2300 59.6 59 45.4 52.3 NW | 320 0.4 2.3 0.0 12.6 0.00 0.00 44.8 91.3 13.6 0.0
8/30/26 - 2200 65.5 50 46.6 54.9 NNW | 338 0.6 3.3 0.0 12.6 0.00 0.00 44.8 91.3 13.6 0.0
8/30/26 - 2100 74.4 39 47.5 58.1 NW | 307 2.1 7.7 0.0 12.7 0.00 0.00 44.8 91.3 13.6 0.0
8/30/26 - 2000 78.8 34 47.8 59.2 WNW | 297 3.5 13.6 0.0 12.8 0.00 0.00 44.8 91.3 13.6 0.0
8/30/26 - 1900 84.1 30 49.7 61.3 WNW | 298 4.3 12.8 0.0 13.2 0.00 0.00 44.8 91.3 13.4 0.0
8/30/26 - 1800 88.1 28 50.9 62.5 WNW | 303 4.2 13.4 0.0 13.1 0.00 0.00 44.8 91.3 13.4 0.0
8/30/26 - 1700 89.3 20 42.6 59.2 SE | 144 2.9 8.1 0.0 13.1 0.00 0.00 44.8 91.3 12.8 0.0
8/30/26 - 1600 88.8 21 44.4 59.8 SSE | 153 3.8 10.0 0.0 13.1 0.00 0.00 44.8 90.1 12.8 0.0
8/30/26 - 1500 87.5 22 44.2 59.4 SE | 142 3.4 9.6 0.0 13.1 0.00 0.00 44.8 88.5 12.8 0.0
8/30/26 - 1400 85.1 27 47.2 60.3 SSE | 156 4.7 10.5 0.0 13.2 0.00 0.00 44.8 86.9 12.8 0.0
8/30/26 - 1300 82.4 32 49.9 61.1 SSE | 150 4.6 12.8 0.0 13.2 0.00 0.00 44.8 84.5 12.8 0.0
8/30/26 - 1200 78.7 38 51.0 60.9 SE | 141 2.6 8.0 0.0 13.3 0.00 0.00 44.8 80.7 8.0 0.0
8/30/26 - 1100 74.3 45 51.7 60.3 SE | 146 1.9 6.9 0.0 13.2 0.00 0.00 44.8 76.1 6.9 0.0
8/30/26 - 1000 68.8 55 51.8 58.9 SE | 127 1.2 4.9 0.0 12.7 0.00 0.00 44.8 71.8 4.9 0.0
8/30/26 - 0900 61.4 65 49.3 55.0 ESE | 118 0.4 2.4 0.0 12.6 0.00 0.00 44.8 66.0 2.5 0.0
8/30/26 - 0800 48.5 90 45.6 47.5 NE | 40 0.4 1.6 0.0 12.5 0.00 0.00 44.8 56.0 2.5 0.0
8/30/26 - 0700 45.3 93 43.4 44.8 SE | 130 0.0 1.1 0.0 12.5 0.00 0.00 44.8 52.2 2.5 0.0
8/30/26 - 0600 46.3 92 44.2 45.8 NNE | 18 0.3 2.5 0.0 12.5 0.00 0.00 45.6 52.2 2.5 0.0
8/30/26 - 0500 47.4 90 44.7 46.5 W | 273 0.0 1.4 0.0 12.5 0.00 0.00 46.6 52.2 2.3 0.0
8/30/26 - 0400 48.0 88 44.8 46.9 WNW | 283 0.1 2.3 0.0 12.6 0.00 0.00 47.6 52.2 2.3 0.0
8/30/26 - 0300 49.0 87 45.3 47.6 WNW | 286 0.0 1.8 0.0 12.6 0.00 0.00 48.0 52.2 1.8 0.0
8/30/26 - 0200 50.8 84 46.3 49.0 N | 0 0.0 0.0 0.0 12.6 0.00 0.00 49.6 52.2 0.0 0.0
8/30/26 - 0100 54.4 76 47.0 51.0 E | 98 0.3 3.9 0.0 12.6 0.00 0.00 41.1 88.5 17.3 0.0
8/30/26 - 0000 58.4 65 46.6 52.4 NNW | 346 0.8 3.7 0.0 12.6 0.00 0.00 41.1 88.5 17.3 0.0
8/29/26 - 2300 61.2 60 47.0 53.7 N | 357 1.1 5.0 0.0 12.6 0.00 0.00 41.1 88.5 17.3 0.0
8/29/26 - 2200 65.7 52 47.8 55.6 NNW | 335 2.2 8.3 0.0 12.7 0.00 0.00 41.1 88.5 17.3 0.0
8/29/26 - 2100 68.8 48 48.2 56.9 WNW | 299 3.7 13.6 0.0 12.8 0.00 0.00 41.1 88.5 17.3 0.0
8/29/26 - 2000 72.2 43 48.3 57.9 WNW | 292 3.7 11.7 0.0 12.9 0.00 0.00 41.1 88.5 17.3 0.0
8/29/26 - 1900 77.2 37 49.1 59.5 WNW | 296 5.5 17.3 0.0 13.3 0.00 0.00 41.1 88.5 17.3 0.0
8/29/26 - 1800 81.0 35 50.9 61.3 WNW | 296 4.9 14.8 0.0 13.3 0.00 0.00 41.1 88.5 16.6 0.0
8/29/26 - 1700 83.0 34 51.6 62.0 WNW | 286 5.1 16.6 0.0 13.2 0.00 0.00 41.1 88.5 16.6 0.0
8/29/26 - 1600 85.0 27 47.2 60.3 WNW | 288 4.4 13.5 0.0 13.2 0.00 0.00 41.1 88.5 14.1 0.0
8/29/26 - 1500 86.1 27 47.7 60.7 WNW | 301 4.9 14.1 0.0 13.1 0.00 0.00 41.1 88.5 14.1 0.0
8/29/26 - 1400 84.9 25 45.6 59.6 WNW | 289 3.3 11.7 0.0 13.2 0.00 0.00 41.1 86.7 11.7 0.0
8/29/26 - 1300 83.0 29 47.5 60.0 W | 263 2.9 11.1 0.0 13.2 0.00 0.00 41.1 84.7 11.1 0.0
8/29/26 - 1200 78.9 34 48.1 59.4 SSW | 212 3.1 9.1 0.0 13.3 0.00 0.00 41.1 81.4 9.1 0.0
8/29/26 - 1100 74.0 40 48.3 58.4 SSW | 199 2.4 7.5 0.0 13.3 0.00 0.00 41.1 76.5 7.5 0.0
8/29/26 - 1000 68.1 47 47.0 56.0 SE | 137 1.7 6.8 0.0 12.7 0.00 0.00 41.1 71.6 6.8 0.0
8/29/26 - 0900 58.6 60 44.6 51.4 ESE | 112 0.9 3.3 0.0 12.6 0.00 0.00 41.1 65.2 3.3 0.0
8/29/26 - 0800 44.9 88 41.4 43.5 SSE | 156 0.1 1.6 0.0 12.5 0.00 0.00 41.1 52.3 2.8 0.0
8/29/26 - 0700 41.8 91 39.4 40.9 N | 3 0.1 2.1 0.0 12.5 0.00 0.00 41.1 47.6 2.8 0.0
8/29/26 - 0600 42.0 90 39.2 40.9 N | 353 0.0 1.2 0.0 12.5 0.00 0.00 41.1 47.6 2.8 0.0
8/29/26 - 0500 43.1 88 39.8 41.8 NNW | 343 0.1 1.8 0.0 12.6 0.00 0.00 42.6 47.6 2.8 0.0
8/29/26 - 0400 44.3 86 40.3 42.7 NNW | 346 0.0 1.0 0.0 12.6 0.00 0.00 43.4 47.6 2.8 0.0
8/29/26 - 0300 46.0 81 40.6 43.7 NW | 308 0.1 1.9 0.0 12.6 0.00 0.00 45.4 47.6 2.8 0.0
8/29/26 - 0200 47.0 80 41.1 44.5 NW | 322 0.3 2.8 0.0 12.6 0.00 0.00 46.4 47.6 2.8 0.0
8/29/26 - 0100 48.7 77 41.7 45.6 NNW | 340 0.1 1.4 0.0 12.6 0.00 0.00 47.3 84.9 11.2 0.0
8/29/26 - 0000 50.7 72 42.0 46.7 NNW | 339 0.1 2.0 0.0 12.6 0.00 0.00 49.3 84.9 11.2 0.0
8/28/26 - 2300 54.4 64 42.4 48.6 NNW | 347 0.2 1.9 0.0 12.6 0.00 0.00 52.8 84.9 11.2 0.0
8/28/26 - 2200 60.0 54 43.2 51.3 N | 357 0.6 3.7 0.0 12.7 0.00 0.00 53.7 84.9 11.2 0.0
8/28/26 - 2100 69.9 40 44.6 55.3 NW | 325 1.4 5.9 0.0 12.8 0.00 0.00 53.7 84.9 11.2 0.0
8/28/26 - 2000 75.4 28 40.3 55.1 WNW | 296 2.8 8.4 0.0 12.9 0.00 0.00 53.7 84.9 11.2 0.0
8/28/26 - 1900 79.0 30 44.7 57.9 W | 279 3.1 11.2 0.0 13.3 0.00 0.00 53.7 84.9 11.2 0.0
8/28/26 - 1800 80.4 32 47.4 59.4 WNW | 290 3.3 10.4 0.0 13.2 0.00 0.00 53.7 84.9 11.1 0.0
8/28/26 - 1700 82.2 26 43.4 58.1 WNW | 301 3.5 10.8 0.0 13.3 0.00 0.00 53.7 84.9 11.1 0.0
8/28/26 - 1600 83.6 19 36.8 55.9 WNW | 295 3.2 11.1 0.0 13.2 0.00 0.00 53.7 84.9 11.1 0.0
8/28/26 - 1500 80.9 20 36.4 55.1 SSE | 157 3.9 8.2 0.0 13.3 0.00 0.00 53.7 83.0 10.7 0.0
8/28/26 - 1400 81.7 24 41.4 57.1 SSE | 148 3.6 10.7 0.0 13.2 0.00 0.00 53.7 83.0 10.7 0.0
8/28/26 - 1300 79.8 26 42.0 57.0 SSE | 147 2.3 6.4 0.0 13.3 0.00 0.00 53.7 82.1 6.6 0.0
8/28/26 - 1200 80.5 26 42.6 57.3 SSE | 159 1.1 3.9 0.0 13.3 0.00 0.00 53.7 82.1 6.6 0.0
8/28/26 - 1100 76.0 35 46.1 57.8 SSE | 150 2.1 6.6 0.0 13.3 0.00 0.00 53.7 80.6 6.6 0.0
8/28/26 - 1000 67.0 52 48.7 56.6 SE | 139 1.0 3.8 0.0 12.9 0.00 0.00 53.7 71.2 3.8 0.0
8/28/26 - 0900 60.1 66 48.8 54.3 SSE | 151 0.7 2.4 0.0 12.7 0.00 0.00 53.7 63.5 3.5 0.0
8/28/26 - 0800 55.0 78 48.1 51.9 NNW | 332 0.2 2.1 0.0 12.6 0.00 0.00 53.7 59.8 3.5 0.0
8/28/26 - 0700 54.0 79 47.6 51.2 SSE | 159 0.1 2.1 0.0 12.5 0.00 0.00 53.7 59.8 3.5 0.0
8/28/26 - 0600 54.5 79 48.1 51.7 E | 99 0.3 2.7 0.0 12.5 0.00 0.00 54.1 59.8 3.5 0.0
8/28/26 - 0500 55.3 75 47.4 51.7 N | 2 0.5 2.3 0.0 12.5 0.00 0.00 54.8 59.8 3.5 0.0
8/28/26 - 0400 56.2 71 47.0 51.8 SE | 133 0.2 2.1 0.0 12.5 0.00 0.00 55.6 59.8 3.5 0.0
8/28/26 - 0300 57.9 67 47.2 52.6 W | 272 0.6 3.5 0.0 12.6 0.00 0.00 56.4 59.8 3.5 0.0
8/28/26 - 0200 58.6 68 48.0 53.3 SSE | 163 0.3 3.5 0.0 12.6 0.00 0.00 57.3 59.8 3.5 0.0
8/28/26 - 0100 65.4 50 46.0 54.6 NNW | 346 1.5 8.4 0.0 12.6 0.00 0.00 51.8 95.7 18.7 0.0
8/28/26 - 0000 70.5 42 46.2 56.4 NNW | 346 3.0 12.8 0.0 12.6 0.00 0.00 51.8 95.7 18.7 0.0
8/27/26 - 2300 73.4 42 49.0 58.6 NW | 322 4.5 12.1 0.0 12.6 0.00 0.00 51.8 95.7 18.7 0.0
8/27/26 - 2200 74.9 40 49.1 59.0 WNW | 295 3.7 11.7 0.0 12.6 0.00 0.00 51.8 95.7 18.7 0.0
8/27/26 - 2100 77.3 34 46.9 58.5 WNW | 297 2.5 10.1 0.0 12.7 0.00 0.00 51.8 95.7 18.7 0.0
8/27/26 - 2000 82.2 29 47.2 59.7 NW | 304 3.3 11.1 0.0 12.8 0.00 0.00 51.8 95.7 18.7 0.0
8/27/26 - 1900 87.1 26 48.5 61.2 WNW | 303 4.3 15.0 0.0 13.1 0.00 0.00 51.8 95.7 18.7 0.0
8/27/26 - 1800 90.5 26 51.2 63.0 NW | 317 4.6 14.1 0.0 13.1 0.00 0.00 51.8 95.7 18.7 0.0
8/27/26 - 1700 93.3 22 48.6 62.2 WNW | 295 4.6 18.7 0.0 13.0 0.00 0.00 51.8 95.7 18.7 0.0
8/27/26 - 1600 94.5 20 46.9 61.6 WNW | 288 3.6 12.3 0.0 13.0 0.00 0.00 51.8 95.7 15.0 0.0
8/27/26 - 1500 93.7 19 45.5 61.0 NW | 308 3.9 12.7 0.0 13.0 0.00 0.00 51.8 95.1 15.0 0.0
8/27/26 - 1400 92.4 23 48.7 62.1 WNW | 303 4.3 13.2 0.0 13.1 0.00 0.00 51.8 93.7 15.0 0.0
8/27/26 - 1300 89.5 27 51.0 62.8 W | 277 4.0 12.9 0.0 13.1 0.00 0.00 51.8 91.3 15.0 0.0
8/27/26 - 1200 86.4 29 50.1 61.9 WNW | 295 4.7 15.0 0.0 13.2 0.00 0.00 51.8 88.7 15.0 0.0
8/27/26 - 1100 82.3 35 51.5 61.9 W | 264 3.2 10.5 0.0 13.1 0.00 0.00 51.8 84.8 10.5 0.0
8/27/26 - 1000 74.8 48 53.7 61.6 ESE | 116 1.7 5.6 0.0 12.6 0.00 0.00 51.8 78.7 10.0 0.0
8/27/26 - 0900 66.2 63 52.9 58.8 SE | 125 0.5 2.6 0.0 12.6 0.00 0.00 51.8 72.0 10.0 0.0
8/27/26 - 0800 54.1 88 50.5 52.9 NNW | 343 0.3 2.3 0.0 12.5 0.00 0.00 51.8 67.5 10.0 0.0
8/27/26 - 0700 52.7 89 49.7 51.8 NNW | 341 0.4 2.3 0.0 12.5 0.00 0.00 51.8 67.5 10.0 0.0
8/27/26 - 0600 55.4 84 50.6 53.6 NNW | 329 0.8 3.7 0.0 12.5 0.00 0.00 54.3 67.5 10.0 0.0
8/27/26 - 0500 56.1 83 51.0 54.1 SSW | 207 0.8 4.2 0.0 12.5 0.00 0.00 55.6 67.5 10.0 0.0
8/27/26 - 0400 58.4 76 51.0 55.0 SE | 138 1.1 4.9 0.0 12.5 0.00 0.00 56.0 67.5 10.0 0.0
8/27/26 - 0300 62.9 65 50.9 56.5 NNE | 14 2.8 10.0 0.0 12.6 0.00 0.00 60.0 67.5 10.0 0.0
8/27/26 - 0200 62.0 69 51.7 56.7 NW | 324 1.2 6.1 0.0 12.6 0.00 0.00 60.3 67.5 6.1 0.0
8/27/26 - 0100 64.8 62 51.5 57.5 NNW | 346 2.4 10.3 0.0 12.6 0.00 0.00 43.0 94.9 16.2 0.0
8/27/26 - 0000 63.7 63 50.8 56.7 N | 353 1.9 11.8 0.0 12.6 0.00 0.00 43.0 94.9 16.2 0.0
8/26/26 - 2300 68.1 60 53.8 59.9 NW | 312 1.3 7.7 0.0 12.6 0.00 0.00 43.0 94.9 16.2 0.0
8/26/26 - 2200 72.1 55 55.0 61.7 NW | 312 1.8 6.7 0.0 12.6 0.00 0.00 43.0 94.9 16.2 0.0
8/26/26 - 2100 74.5 51 55.2 62.4 WNW | 299 2.9 7.8 0.0 12.7 0.00 0.00 43.0 94.9 16.2 0.0
8/26/26 - 2000 78.2 43 53.8 62.4 NW | 313 4.0 16.2 0.0 12.8 0.00 0.00 43.0 94.9 16.2 0.0
8/26/26 - 1900 84.1 31 49.9 61.4 WNW | 298 5.2 14.7 0.0 13.2 0.00 0.00 43.0 94.9 16.2 0.0
8/26/26 - 1800 88.2 26 49.4 61.8 WNW | 297 5.2 16.2 0.0 13.1 0.00 0.00 43.0 94.9 16.2 0.0
8/26/26 - 1700 91.3 21 45.7 60.7 WNW | 290 4.6 14.9 0.0 13.1 0.00 0.00 43.0 94.9 15.6 0.0
8/26/26 - 1600 92.9 19 44.1 60.3 WNW | 286 4.2 15.6 0.0 13.0 0.00 0.00 43.0 94.9 15.6 0.0
8/26/26 - 1500 93.4 17 41.3 59.4 W | 262 2.9 11.5 0.0 13.0 0.00 0.00 43.0 94.9 12.7 0.0
8/26/26 - 1400 91.5 18 41.7 59.2 W | 270 3.1 10.4 0.0 13.1 0.00 0.00 43.0 93.3 12.7 0.0
8/26/26 - 1300 89.2 20 43.4 59.4 WNW | 290 3.0 12.7 0.0 13.1 0.00 0.00 43.0 90.5 12.7 0.0
8/26/26 - 1200 84.8 25 45.0 59.2 W | 265 3.4 10.1 0.0 13.2 0.00 0.00 43.0 87.4 10.1 0.0
8/26/26 - 1100 78.4 33 47.1 58.8 ESE | 112 1.8 5.5 0.0 13.2 0.00 0.00 43.0 81.9 5.5 0.0
8/26/26 - 1000 71.9 40 46.3 56.8 ESE | 115 1.0 3.0 0.0 12.7 0.00 0.00 43.0 75.3 3.0 0.0
8/26/26 - 0900 61.7 53 44.5 52.5 SE | 138 0.6 2.8 0.0 12.6 0.00 0.00 43.0 67.6 2.8 0.0
8/26/26 - 0800 47.3 84 42.5 45.3 SE | 127 0.0 1.3 0.0 12.6 0.00 0.00 43.0 55.9 2.7 0.0
8/26/26 - 0700 43.8 90 40.9 42.8 NE | 50 0.2 2.2 0.0 12.5 0.00 0.00 43.0 54.6 2.7 0.0
8/26/26 - 0600 44.5 89 41.5 43.4 WNW | 293 0.0 1.2 0.0 12.5 0.00 0.00 43.2 54.6 2.7 0.0
8/26/26 - 0500 46.6 84 42.0 44.7 W | 271 0.1 1.3 0.0 12.5 0.00 0.00 45.8 54.6 2.7 0.0
8/26/26 - 0400 47.5 80 41.8 45.1 NNW | 347 0.2 2.0 0.0 12.6 0.00 0.00 46.8 54.6 2.7 0.0
8/26/26 - 0300 49.3 80 43.3 46.7 WNW | 282 0.1 2.7 0.0 12.6 0.00 0.00 48.4 54.6 2.7 0.0
8/26/26 - 0200 52.5 71 43.2 48.2 W | 265 0.1 2.0 0.0 12.6 0.00 0.00 50.3 54.6 2.0 0.0
8/26/26 - 0100 57.2 57 42.2 49.7 NW | 316 0.6 4.3 0.0 12.6 0.00 0.00 47.8 91.1 15.0 0.0
8/26/26 - 0000 59.4 54 42.6 50.8 NW | 304 1.0 3.8 0.0 12.6 0.00 0.00 47.8 91.1 15.0 0.0
8/25/26 - 2300 62.7 49 43.2 52.3 NW | 326 0.8 3.2 0.0 12.6 0.00 0.00 47.8 91.1 15.0 0.0
8/25/26 - 2200 71.6 37 44.0 55.6 NW | 305 1.7 7.3 0.0 12.6 0.00 0.00 47.8 91.1 15.0 0.0
8/25/26 - 2100 76.2 29 41.9 55.9 WNW | 300 2.7 11.7 0.0 12.7 0.00 0.00 47.8 91.1 15.0 0.0
8/25/26 - 2000 80.2 29 45.4 58.4 WNW | 296 3.8 11.1 0.0 12.8 0.00 0.00 47.8 91.1 15.0 0.0
8/25/26 - 1900 85.7 29 49.6 61.5 WNW | 293 4.6 15.0 0.0 13.2 0.00 0.00 47.8 91.1 15.0 0.0
8/25/26 - 1800 89.2 23 46.4 60.7 SSE | 161 3.9 9.9 0.0 13.1 0.00 0.00 47.8 91.1 11.7 0.0
8/25/26 - 1700 90.2 21 45.5 60.4 SE | 146 3.6 8.3 0.0 13.1 0.00 0.00 47.8 91.1 11.7 0.0
8/25/26 - 1600 90.5 20 44.2 60.0 SE | 137 3.6 10.3 0.0 13.1 0.00 0.00 47.8 91.1 11.7 0.0
8/25/26 - 1500 89.9 20 43.1 59.5 SE | 140 4.1 11.7 0.0 13.1 0.00 0.00 47.8 90.6 11.7 0.0
8/25/26 - 1400 88.7 20 42.9 59.2 SE | 128 2.3 7.6 0.0 13.1 0.00 0.00 47.8 90.3 8.8 0.0
8/25/26 - 1300 85.8 25 45.6 59.7 SE | 143 2.6 8.8 0.0 13.2 0.00 0.00 47.8 87.4 8.8 0.0
8/25/26 - 1200 80.4 36 51.0 61.3 SE | 132 2.2 5.3 0.0 13.3 0.00 0.00 47.8 84.5 5.3 0.0
8/25/26 - 1100 75.1 44 51.9 60.6 SE | 141 1.6 3.8 0.0 13.2 0.00 0.00 47.8 78.5 5.2 0.0
8/25/26 - 1000 71.9 48 51.2 59.4 SE | 140 1.8 5.2 0.0 12.7 0.00 0.00 47.8 73.6 5.2 0.0
8/25/26 - 0900 65.6 56 49.4 56.5 SSE | 155 1.3 4.2 0.0 12.6 0.00 0.00 47.8 71.4 4.2 0.0
8/25/26 - 0800 50.6 88 46.9 49.2 NNW | 346 0.4 2.3 0.0 12.5 0.00 0.00 47.8 58.1 3.5 0.0
8/25/26 - 0700 48.5 91 46.0 47.8 NNW | 346 0.4 2.8 0.0 12.5 0.00 0.00 47.8 53.7 3.5 0.0
8/25/26 - 0600 49.7 88 46.4 48.6 SSW | 196 0.4 3.5 0.0 12.5 0.00 0.00 48.9 53.7 3.5 0.0
8/25/26 - 0500 49.9 89 46.7 48.8 NW | 308 0.6 2.4 0.0 12.5 0.00 0.00 48.9 53.7 3.4 0.0
8/25/26 - 0400 49.8 86 45.9 48.4 NNW | 348 0.6 3.4 0.0 12.5 0.00 0.00 48.9 53.7 3.4 0.0
8/25/26 - 0300 51.0 83 45.9 48.9 N | 350 0.3 3.1 0.0 12.6 0.00 0.00 50.3 53.7 3.1 0.0
8/25/26 - 0200 52.6 83 47.5 50.6 N | 353 0.2 2.0 0.0 12.6 0.00 0.00 50.8 53.7 2.0 0.0
8/25/26 - 0100 54.7 74 46.7 51.0 NNW | 344 0.4 2.4 0.0 12.6 0.00 0.00 47.8 92.8 15.6 0.0
8/25/26 - 0000 56.9 72 48.0 52.6 NNW | 327 0.4 2.8 0.0 12.6 0.00 0.00 47.8 92.8 15.6 0.0
8/24/26 - 2300 60.8 64 48.7 54.5 NNW | 330 0.1 1.3 0.0 12.6 0.00 0.00 47.8 92.8 15.6 0.0
8/24/26 - 2200 68.3 51 48.9 57.1 NW | 323 0.6 4.8 0.0 12.6 0.00 0.00 47.8 92.8 15.6 0.0
8/24/26 - 2100 73.8 44 50.6 59.5 WNW | 291 1.8 5.6 0.0 12.7 0.00 0.00 47.8 92.8 15.6 0.0
8/24/26 - 2000 79.6 39 52.4 61.9 WNW | 287 4.6 15.6 0.0 12.8 0.00 0.00 47.8 92.8 15.6 0.0
8/24/26 - 1900 86.3 36 56.0 65.1 WNW | 295 4.0 10.8 0.0 13.2 0.00 0.00 47.8 92.8 11.7 0.0
8/24/26 - 1800 90.3 21 44.5 60.2 SSE | 158 4.5 10.6 0.0 13.1 0.00 0.00 47.8 92.8 11.7 0.0
8/24/26 - 1700 91.6 18 41.7 59.3 SSE | 156 4.1 9.9 0.0 13.0 0.00 0.00 47.8 92.8 11.7 0.0
8/24/26 - 1600 91.4 21 45.9 60.8 SSE | 156 5.2 10.8 0.0 13.1 0.00 0.00 47.8 92.3 11.7 0.0
8/24/26 - 1500 91.1 22 46.8 61.1 SSE | 148 4.8 11.7 0.0 13.1 0.00 0.00 47.8 91.9 11.7 0.0
8/24/26 - 1400 89.8 23 46.6 60.9 SSE | 152 5.0 11.1 0.0 13.1 0.00 0.00 47.8 91.1 11.1 0.0
8/24/26 - 1300 87.2 27 49.1 61.6 SSE | 154 4.2 9.3 0.0 13.1 0.00 0.00 47.8 89.0 9.3 0.0
8/24/26 - 1200 84.6 33 52.1 62.6 SE | 143 2.6 6.7 0.0 13.2 0.00 0.00 47.8 86.7 6.8 0.0
Max 94.5 93 56.0 65.1 - 5.5 18.7 0.0 13.3 0.00 0.00 60.3 95.7 18.7 0.0
Avg 68.9 52 46.6 55.1 - 2.0 6.9 0.0 12.8 0.00 - - - - -
Min 41.8 17 36.4 40.9 - 0.0 0.0 0.0 12.5 0.00 0.00 41.1 47.6 0.0 0.0
Total - - - - - - - - - 0.00 - - - - -

Chilling & Growing Degree Days

Upper Lake

Daily Data | America/Los_Angeles
as of 8/31/26 11:49 AM PDT
Date Chilling <=45F (hrs) Chill Hrs 32-45F (hrs) Utah Chilling (Units) GDDs (DL) GDDs (Mx/Mn) Seas GDDs (DL) Seas GDDs (Smpl)
8/30/26 0.2 0.2 -8.5 17.9 18.0 2,558 2,429
8/29/26 4.5 4.5 -6.5 16.3 14.8 2,540 2,411
8/28/26 0.0 0.0 -11.5 16.8 16.1 2,524 2,396
8/27/26 0.0 0.0 -17.5 24.8 23.7 2,507 2,380
8/26/26 2.1 2.1 -9.5 20.9 19.0 2,482 2,356
8/25/26 0.0 0.0 -11.0 19.8 19.4 2,461 2,337
8/24/26 0.0 0.0 -11.0 20.1 20.3 2,442 2,318
Max 4.5 4.5 -6.5 24.8 23.7 - -
Avg 1.0 1.0 -10.8 19.5 18.8 - -
Min 0.0 0.0 -17.5 16.3 14.8 - -
Total 6.8 6.8 -75.5 136.6 131.4 - -
Calm: 0.6%

Upper Lake Climate Summary

Current Year

Current Year | Showing 1/1/26 - 8/30/26
as of 8/31/26 11:49 AM PDT
Temperature (°F) Max Wind Gust (mph) Precip (in) Days
Month Days Avg High Avg Low Max Min Avg Max Total Daily Min Temp < 28 Daily Min Temp < 32 Daily Max Temp > 90 Daily Max Temp > 100 Daily Rain > 0.01 Daily Rain > 0.1
Jan 2026 31 61.8 32.7 73.9 22.9 10.8 26.6 4.87 10 21 0 0 8 7
Feb 2026 28 61 36.8 75.3 24.4 14.5 28.4 6.04 3 11 0 0 11 9
Mar 2026 31 76.3 38.4 92.5 30.5 16.9 27.2 0.03 0 1 1 0 1 0
Apr 2026 30 67.8 39 81.6 29.4 15.7 22.1 3.57 0 2 0 0 7 6
May 2026 31 78.4 45.3 89 36.7 17.4 32.6 0.51 0 0 0 0 3 2
Jun 2026 30 88.2 50.2 99 40.1 15.9 22.2 0 0 0 13 0 0 0
Jul 2026 31 93.8 50.8 101.1 45.1 15.9 22.1 0.03 0 0 30 1 1 0
Aug 2026 30 94.9 50.7 108.1 41.1 14.8 20.1 0 0 0 25 7 0 0
Total 242 - - - - - - 15.05 13 35 69 8 31 24
Average 30.2 77.9 43 77.9 43 15.2 - 1.88 1.6 4.4 8.6 1 3.9 3
Maximum 31 94.9 50.8 108.1 - - 32.6 6.04 10 21 30 7 11 9
Minimum 28 61 32.7 - 22.9 - - 0 0 0 0 0 0 0

Upper Lake Climate Summary

Last Year

Last Year | Showing 1/1/25 - 12/31/25
as of 8/31/26 11:49 AM PDT
Temperature (°F) Max Wind Gust (mph) Precip (in) Days
Month Days Avg High Avg Low Max Min Avg Max Total Daily Min Temp < 28 Daily Min Temp < 32 Daily Max Temp > 90 Daily Max Temp > 100 Daily Rain > 0.01 Daily Rain > 0.1
Jan 2025 31 61 29.4 69.1 22.6 11.5 23.4 1.48 16 24 0 0 4 3
Feb 2025 28 57.8 34 76.9 22.6 14.1 23.8 9.25 5 16 0 0 11 8
Mar 2025 31 58.9 36.5 81.1 28.3 17.6 27.8 4.93 0 10 0 0 14 8
Apr 2025 30 71.2 40 83.6 31 16.2 21.6 1.26 0 2 0 0 5 4
May 2025 31 78.6 43.3 97.6 37.1 18.2 30.7 0.19 0 0 2 0 1 1
Jun 2025 30 88 48.9 96.1 42.7 17 24.9 0 0 0 13 0 0 0
Jul 2025 31 92.3 51.7 103.5 42.5 16.4 22.6 0 0 0 19 4 0 0
Aug 2025 31 94.4 50.9 102.3 39.6 16.7 25.9 0 0 0 25 6 0 0
Sep 2025 30 85.6 51.1 98.4 44.8 14.7 23.1 1.16 0 0 11 0 5 3
Oct 2025 31 72.1 42.4 87.1 35.2 12.5 20.8 1.28 0 0 0 0 7 3
Nov 2025 30 65.8 38.6 78.1 28 12.4 21.9 4.46 0 7 0 0 9 7
Dec 2025 31 61.6 35.4 72.5 25.8 11.5 30.9 8.23 5 18 0 0 14 14
Total 365 - - - - - - 32.24 26 77 70 10 70 51
Average 30.4 74 41.9 74 41.9 14.9 - 2.69 2.2 6.4 5.8 0.8 5.8 4.2
Maximum 31 94.4 51.7 103.5 - - 30.9 9.25 16 24 25 6 14 14
Minimum 28 57.8 29.4 - 22.6 - - 0 0 0 0 0 0 0

Climate Summary 2019

Upper Lake

1/1/2019 - 12/31/2019 | Showing 1/1/19 - 12/31/19
as of 8/31/26 11:49 AM PDT
Temperature (°F) Max Wind Gust (mph) Precip (in) Days
Month Days Avg High Avg Low Max Min Avg Max Total Daily Min Temp < 28 Daily Min Temp < 32 Daily Max Temp > 90 Daily Max Temp > 100 Daily Rain > 0.01 Daily Rain > 0.1
Jan 2019 31 57.8 36.4 71.8 24.8 13.7 26.4 9.44 3 9 0 0 11 11
Feb 2019 28 49.6 34 57.1 23 17.1 31 15.92 8 12 0 0 19 16
Mar 2019 31 59.4 37.1 74 27.9 14.7 26.8 6.68 1 4 0 0 15 11
Apr 2019 30 71.5 44.9 89.7 37.6 15 28.2 0.94 0 0 0 0 8 2
May 2019 31 73.7 44.5 86.5 35.8 14.6 20.2 3.63 0 0 0 0 9 5
Jun 2019 30 87.2 50.8 97 39.1 13.4 20.7 0.01 0 0 12 0 0 0
Jul 2019 31 89.9 53.2 97.5 47.9 13.4 17.4 0.03 0 0 17 0 1 0
Aug 2019 31 91.7 53.8 98.8 48 13.1 22.2 0.01 0 0 21 0 0 0
Sep 2019 30 83.1 46.8 97.4 33.5 13.6 25.8 0.24 0 0 11 0 3 1
Oct 2019 31 77 34.1 88.6 22.1 13.3 30.9 0.03 4 10 0 0 1 0
Nov 2019 30 69.8 32.5 82.9 23.7 12.4 37.9 1.66 6 15 0 0 3 3
Dec 2019 31 53.7 37.7 61.9 24 12.6 30.2 6.33 4 10 0 0 17 10
Total 365 - - - - - - 44.92 26 60 61 0 87 59
Average 30.4 72.2 42.2 72.2 42.2 13.9 - 3.74 2.2 5 5.1 0 7.2 4.9
Maximum 31 91.7 53.8 98.8 - - 37.9 15.92 8 15 21 0 19 16
Minimum 28 49.6 32.5 - 22.1 - - 0.01 0 0 0 0 0 0

Climate Summary 2018

Upper Lake

1/1/2018 - 12/31/2018 | Showing 1/1/18 - 12/31/18
as of 8/31/26 11:49 AM PDT
Temperature (°F) Max Wind Gust (mph) Precip (in) Days
Month Days Avg High Avg Low Max Min Avg Max Total Daily Min Temp < 28 Daily Min Temp < 32 Daily Max Temp > 90 Daily Max Temp > 100 Daily Rain > 0.01 Daily Rain > 0.1
Jan 2018 31 56.5 36.2 69.7 27.7 - - 5.62 2 8 0 0 13 9
Feb 2018 28 62.4 29.1 78.7 20.6 - - 0.9 13 19 0 0 3 2
Mar 2018 31 60.7 34 83.7 24.1 - - 5.7 3 11 0 0 16 13
Apr 2018 30 69 39.5 84.5 30.2 15.1 20.4 4.78 0 1 0 0 8 5
May 2018 31 77.9 45.3 92.1 35.3 14.7 25.2 0.26 0 0 1 0 2 1
Jun 2018 30 86.3 47.6 97.4 37.7 14.3 20.5 0 0 0 11 0 0 0
Jul 2018 31 95.2 53.2 103.1 46.2 13.1 18.5 0 0 0 24 4 0 0
Aug 2018 31 90.9 50.3 97.2 46.6 13.3 18.7 0 0 0 18 0 0 0
Sep 2018 30 86.7 44.5 96.2 39.5 13 18.8 0 0 0 12 0 0 0
Oct 2018 31 77.7 40.7 85.6 31.9 11.6 20.7 1.25 0 1 0 0 4 3
Nov 2018 30 66.4 32.5 82.4 20.4 10 18.6 5.43 13 15 0 0 7 7
Dec 2018 31 55.2 33.6 63.7 26.1 13 27.1 3.34 4 14 0 0 12 7
Total 365 - - - - - - 27.28 35 69 66 4 65 47
Average 30.4 73.8 40.6 73.8 40.6 13 - 2.27 2.9 5.8 5.5 0.3 5.4 3.9
Maximum 31 95.2 53.2 103.1 - - 27.1 5.7 13 19 24 4 16 13
Minimum 28 55.2 29.1 - 20.4 - - 0 0 0 0 0 0 0

Climate Summary 2017

Upper Lake

1/1/2017 - 12/31/2017 | Showing 1/1/17 - 12/31/17
as of 8/31/26 11:49 AM PDT
Temperature (°F) Max Wind Gust (mph) Precip (in) Days
Month Days Avg High Avg Low Max Min Avg Max Total Daily Min Temp < 28 Daily Min Temp < 32 Daily Max Temp > 90 Daily Max Temp > 100 Daily Rain > 0.01 Daily Rain > 0.1
Jan 2017 31 51.8 32.4 63.8 20.8 - - 16.02 10 17 0 0 16 14
Feb 2017 27 55.9 37.8 69.2 24.2 - - 10.98 4 8 0 0 16 14
Mar 2017 31 64.5 38.3 80.1 26.3 - - 3.42 2 3 0 0 10 8
Apr 2017 30 65.8 40.3 83.8 31.1 - - 4.03 0 2 0 0 12 7
May 2017 31 80.5 45 96.1 36.6 - - 0 0 0 5 0 0 0
Jun 2017 30 87.6 51.4 104.7 39.8 - - 0.21 0 0 12 6 1 1
Jul 2017 31 94.1 52.3 99.3 47.3 - - 0 0 0 28 0 0 0
Aug 2017 31 95 54.2 103.7 47.6 - - 0 0 0 29 4 0 0
Sep 2017 30 85.6 48.4 104.2 33.9 - - 0.01 0 0 8 3 0 0
Oct 2017 31 79.2 36.3 90.6 27.2 - - 0.37 1 5 1 0 1 1
Nov 2017 30 59.3 38.3 70.8 25.9 - - 5.32 2 7 0 0 13 8
Dec 2017 31 60.1 27.5 71.2 21.7 - - 0.13 19 30 0 0 2 0
Total 364 - - - - - - 40.49 38 72 83 13 71 53
Average 30.3 73.5 41.9 73.5 41.9 - - 3.37 3.2 6 6.9 1.1 5.9 4.4
Maximum 31 95 54.2 104.7 - - - 16.02 19 30 29 6 16 14
Minimum 27 51.8 27.5 - 20.8 - - 0 0 0 0 0 0 0

Climate Summary 2016

Upper Lake

1/1/2016 - 12/31/2016 | Showing 1/1/16 - 12/31/16
as of 8/31/26 11:49 AM PDT
Temperature (°F) Max Wind Gust (mph) Precip (in) Days
Month Days Avg High Avg Low Max Min Avg Max Total Daily Min Temp < 28 Daily Min Temp < 32 Daily Max Temp > 90 Daily Max Temp > 100 Daily Rain > 0.01 Daily Rain > 0.1
Jan 2016 31 52.2 38.2 63.8 20.4 - - 11.01 2 3 0 0 20 19
Feb 2016 29 66 36.2 79.5 29.8 - - 1.62 0 4 0 0 5 4
Mar 2016 31 62.5 38.9 77.5 30.1 - - 8.58 0 2 0 0 16 12
Apr 2016 30 71.2 40.1 85.2 32 - - 1.4 0 0 0 0 6 4
May 2016 31 77.7 45.9 96.8 39.9 - - 0.33 0 0 3 0 4 1
Jun 2016 30 87 48.5 99 42.7 - - 0.47 0 0 13 0 2 1
Jul 2016 31 91.9 50.2 102.3 42.3 - - 0 0 0 18 4 0 0
Aug 2016 31 93.4 49.3 99.5 42.9 - - 0 0 0 26 0 0 0
Sep 2016 30 87.7 44.5 97.4 38.2 - - 0 0 0 12 0 0 0
Oct 2016 31 68.7 43.5 87.2 34.3 - - 6.53 0 0 0 0 14 13
Nov 2016 30 62.6 37.8 76.1 27.3 - - 4.27 3 5 0 0 13 6
Dec 2016 31 53.5 29.6 65.6 19.9 - - 7.22 14 23 0 0 8 7
Total 366 - - - - - - 41.43 19 37 72 4 88 67
Average 30.5 72.9 41.9 72.9 41.9 - - 3.45 1.6 3.1 6 0.3 7.3 5.6
Maximum 31 93.4 50.2 102.3 - - - 11.01 14 23 26 4 20 19
Minimum 29 52.2 29.6 - 19.9 - - 0 0 0 0 0 0 0